createdAt,value
2017-10-16T00:00:39.094Z,0
2017-10-16T00:01:47.934Z,0
2017-10-16T00:02:56.784Z,0
2017-10-16T00:04:05.636Z,0
2017-10-16T00:05:14.832Z,0
2017-10-16T00:06:23.679Z,0
2017-10-16T00:07:32.533Z,0
2017-10-16T00:08:41.383Z,0
2017-10-16T00:09:50.332Z,0
2017-10-16T00:10:59.183Z,0
2017-10-16T00:12:08.031Z,0
2017-10-16T00:13:16.883Z,0
2017-10-16T00:14:25.731Z,0
2017-10-16T00:15:34.683Z,0
2017-10-16T00:16:43.876Z,0
2017-10-16T00:17:52.726Z,0
2017-10-16T00:19:01.572Z,0
2017-10-16T00:20:10.419Z,0
2017-10-16T00:21:19.366Z,0
2017-10-16T00:22:28.214Z,0
2017-10-16T00:23:37.065Z,0
2017-10-16T00:24:45.910Z,0
2017-10-16T00:25:54.778Z,0
2017-10-16T00:27:03.760Z,0
2017-10-16T00:28:12.619Z,0
2017-10-16T00:29:21.460Z,0
2017-10-16T00:30:30.309Z,0
2017-10-16T00:31:39.161Z,0
2017-10-16T00:32:48.014Z,0
2017-10-16T00:33:57.209Z,0
2017-10-16T00:35:06.055Z,0
2017-10-16T00:36:14.904Z,0
2017-10-16T00:37:23.753Z,0
2017-10-16T00:38:32.903Z,0
2017-10-16T00:39:41.751Z,0
2017-10-16T00:40:50.596Z,0
2017-10-16T00:41:59.446Z,0
2017-10-16T00:43:08.296Z,0
2017-10-16T00:44:17.398Z,0
2017-10-16T00:45:26.246Z,0
2017-10-16T00:46:35.092Z,0
2017-10-16T00:47:43.950Z,0
2017-10-16T00:48:52.796Z,0
2017-10-16T00:50:01.648Z,0
2017-10-16T00:51:10.499Z,0
2017-10-16T00:52:19.352Z,0
2017-10-16T00:53:28.198Z,0
2017-10-16T00:54:37.048Z,0
2017-10-16T00:55:45.946Z,0
2017-10-16T00:56:54.796Z,0
2017-10-16T00:58:03.640Z,0
2017-10-16T00:59:12.489Z,0
2017-10-16T01:00:21.339Z,0
2017-10-16T01:01:30.238Z,0
2017-10-16T01:02:39.083Z,0
2017-10-16T01:03:47.929Z,0
2017-10-16T01:04:56.778Z,0
2017-10-16T01:06:05.625Z,0
2017-10-16T01:07:14.874Z,0
2017-10-16T01:08:23.723Z,0
2017-10-16T01:09:32.574Z,0
2017-10-16T01:10:41.425Z,0
2017-10-16T01:11:50.273Z,0
2017-10-16T01:12:59.222Z,0
2017-10-16T01:14:08.071Z,0
2017-10-16T01:15:16.918Z,0
2017-10-16T01:16:25.768Z,0
2017-10-16T01:17:34.615Z,0
2017-10-16T01:18:43.906Z,0
2017-10-16T01:19:53.107Z,0
2017-10-16T01:21:01.961Z,0
2017-10-16T01:22:10.802Z,0
2017-10-16T01:23:19.999Z,0
2017-10-16T01:24:28.901Z,0
2017-10-16T01:25:37.766Z,0
2017-10-16T01:26:46.603Z,0
2017-10-16T01:27:55.455Z,0
2017-10-16T01:29:04.304Z,0
2017-10-16T01:30:13.255Z,0
2017-10-16T01:31:22.104Z,0
2017-10-16T01:32:30.955Z,0
2017-10-16T01:33:39.811Z,0
2017-10-16T01:34:48.656Z,0
2017-10-16T01:35:57.804Z,0
2017-10-16T01:37:06.652Z,0
2017-10-16T01:38:15.506Z,0
2017-10-16T01:39:24.351Z,0
2017-10-16T01:40:33.199Z,0
2017-10-16T01:41:42.098Z,0
2017-10-16T01:42:51.290Z,0
2017-10-16T01:44:00.138Z,0
2017-10-16T01:45:08.989Z,0
2017-10-16T01:46:17.846Z,0
2017-10-16T01:47:26.748Z,0
2017-10-16T01:48:35.597Z,0
2017-10-16T01:49:44.447Z,0
2017-10-16T01:50:53.298Z,0
2017-10-16T01:52:02.147Z,0
2017-10-16T01:53:11.340Z,0
2017-10-16T01:54:20.186Z,0
2017-10-16T01:55:29.038Z,0
2017-10-16T01:56:38.228Z,0
2017-10-16T01:57:47.077Z,0
2017-10-16T01:58:56.178Z,0
2017-10-16T02:00:05.029Z,0
2017-10-16T02:01:13.877Z,0
2017-10-16T02:02:23.077Z,0
2017-10-16T02:03:31.927Z,0
2017-10-16T02:04:40.775Z,0
2017-10-16T02:05:49.626Z,0
2017-10-16T02:06:58.819Z,0
2017-10-16T02:08:07.670Z,0
2017-10-16T02:09:16.518Z,0
2017-10-16T02:10:25.415Z,0
2017-10-16T02:11:34.264Z,0
2017-10-16T02:12:43.113Z,0
2017-10-16T02:13:51.962Z,0
2017-10-16T02:15:01.159Z,0
2017-10-16T02:16:10.405Z,0
2017-10-16T02:17:19.251Z,0
2017-10-16T02:18:28.099Z,0
2017-10-16T02:19:36.949Z,0
2017-10-16T02:20:45.797Z,0
2017-10-16T02:21:54.843Z,0
2017-10-16T02:23:03.713Z,0
2017-10-16T02:24:12.543Z,0
2017-10-16T02:25:21.393Z,0
2017-10-16T02:26:30.244Z,0
2017-10-16T02:27:39.293Z,0
2017-10-16T02:28:48.143Z,0
2017-10-16T02:29:56.992Z,0
2017-10-16T02:31:05.838Z,0
2017-10-16T02:32:14.689Z,0
2017-10-16T02:33:23.883Z,0
2017-10-16T02:34:32.731Z,0
2017-10-16T02:35:41.579Z,0
2017-10-16T02:36:50.428Z,0
2017-10-16T02:37:59.278Z,0
2017-10-16T02:39:08.229Z,0
2017-10-16T02:40:17.078Z,0
2017-10-16T02:41:25.935Z,0
2017-10-16T02:42:35.138Z,0
2017-10-16T02:43:43.982Z,0
2017-10-16T02:44:53.030Z,0
2017-10-16T02:46:01.879Z,0
2017-10-16T02:47:10.730Z,0
2017-10-16T02:48:19.580Z,0
2017-10-16T02:49:28.430Z,0
2017-10-16T02:50:37.379Z,0
2017-10-16T02:51:46.230Z,0
2017-10-16T02:52:55.077Z,0
2017-10-16T02:54:03.927Z,0
2017-10-16T02:55:13.133Z,0
2017-10-16T02:56:22.079Z,0
2017-10-16T02:57:30.934Z,0
2017-10-16T02:58:39.776Z,0
2017-10-16T02:59:48.622Z,0
2017-10-16T03:00:57.471Z,0
2017-10-16T03:02:06.320Z,0
2017-10-16T03:03:15.176Z,0
2017-10-16T03:04:24.021Z,0
2017-10-16T03:05:32.870Z,0
2017-10-16T03:06:41.718Z,0
2017-10-16T03:07:50.615Z,0
2017-10-16T03:08:59.466Z,0
2017-10-16T03:10:08.663Z,0
2017-10-16T03:11:17.510Z,0
2017-10-16T03:12:26.360Z,0
2017-10-16T03:13:35.311Z,0
2017-10-16T03:14:44.160Z,0
2017-10-16T03:15:53.009Z,0
2017-10-16T03:17:01.858Z,0
2017-10-16T03:18:10.705Z,0
2017-10-16T03:19:19.708Z,0
2017-10-16T03:20:28.556Z,0
2017-10-16T03:21:37.755Z,0
2017-10-16T03:22:46.611Z,0
2017-10-16T03:23:55.456Z,0
2017-10-16T03:25:04.402Z,0
2017-10-16T03:26:13.252Z,0
2017-10-16T03:27:22.098Z,0
2017-10-16T03:28:30.945Z,0
2017-10-16T03:29:39.794Z,0
2017-10-16T03:30:49.146Z,0
2017-10-16T03:31:57.997Z,0
2017-10-16T03:33:06.846Z,0
2017-10-16T03:34:15.696Z,0
2017-10-16T03:35:24.547Z,0
2017-10-16T03:36:33.498Z,0
2017-10-16T03:37:42.347Z,0
2017-10-16T03:38:51.201Z,0
2017-10-16T03:40:00.046Z,0
2017-10-16T03:41:08.896Z,0
2017-10-16T03:42:17.745Z,0
2017-10-16T03:43:26.590Z,0
2017-10-16T03:44:35.436Z,0
2017-10-16T03:45:44.282Z,0
2017-10-16T03:46:53.130Z,0
2017-10-16T03:48:01.979Z,0
2017-10-16T03:49:10.826Z,0
2017-10-16T03:50:19.676Z,0
2017-10-16T03:51:28.523Z,0
2017-10-16T03:52:37.724Z,0
2017-10-16T03:53:46.871Z,0
2017-10-16T03:54:55.717Z,0
2017-10-16T03:56:04.567Z,0
2017-10-16T03:57:13.416Z,0
2017-10-16T03:58:22.265Z,0
2017-10-16T03:59:31.314Z,0
2017-10-16T04:00:40.164Z,0
2017-10-16T04:01:49.013Z,0
2017-10-16T04:02:57.864Z,0
2017-10-16T04:04:06.720Z,0
2017-10-16T04:05:15.778Z,0
2017-10-16T04:06:24.626Z,0
2017-10-16T04:07:33.476Z,0
2017-10-16T04:08:42.324Z,0
2017-10-16T04:09:51.175Z,0
2017-10-16T04:11:00.425Z,0
2017-10-16T04:12:09.272Z,0
2017-10-16T04:13:18.467Z,0
2017-10-16T04:14:27.314Z,0
2017-10-16T04:15:36.507Z,0
2017-10-16T04:16:45.456Z,0
2017-10-16T04:17:54.304Z,0
2017-10-16T04:19:03.152Z,0
2017-10-16T04:20:11.999Z,0
2017-10-16T04:21:20.850Z,0
2017-10-16T04:22:29.899Z,0
2017-10-16T04:23:38.747Z,0
2017-10-16T04:24:47.596Z,0
2017-10-16T04:25:56.446Z,0
2017-10-16T04:27:05.296Z,0
2017-10-16T04:28:14.145Z,0
2017-10-16T04:29:22.996Z,0
2017-10-16T04:30:31.846Z,0
2017-10-16T04:31:40.695Z,0
2017-10-16T04:32:49.551Z,0
2017-10-16T04:33:58.497Z,0
2017-10-16T04:35:07.346Z,0
2017-10-16T04:36:16.197Z,0
2017-10-16T04:37:25.047Z,0
2017-10-16T04:38:33.895Z,0
2017-10-16T04:39:43.148Z,0
2017-10-16T04:40:51.998Z,0
2017-10-16T04:42:00.848Z,0
2017-10-16T04:43:09.697Z,0
2017-10-16T04:44:18.547Z,0
2017-10-16T04:45:27.445Z,0
2017-10-16T04:46:36.299Z,0
2017-10-16T04:47:45.144Z,0
2017-10-16T04:48:53.996Z,0
2017-10-16T04:50:02.844Z,0
2017-10-16T04:51:12.044Z,0
2017-10-16T04:52:20.892Z,0
2017-10-16T04:53:30.087Z,0
2017-10-16T04:54:38.938Z,0
2017-10-16T04:55:47.783Z,0
2017-10-16T04:56:56.734Z,0
2017-10-16T04:58:05.939Z,0
2017-10-16T04:59:15.133Z,0
2017-10-16T05:00:23.989Z,0
2017-10-16T05:01:32.836Z,0
2017-10-16T05:02:41.685Z,0
2017-10-16T05:03:50.532Z,0
2017-10-16T05:04:59.381Z,0
2017-10-16T05:06:08.231Z,0
2017-10-16T05:07:17.082Z,0
2017-10-16T05:08:25.981Z,0
2017-10-16T05:09:34.833Z,0
2017-10-16T05:10:43.684Z,0
2017-10-16T05:11:52.534Z,0
2017-10-16T05:13:01.384Z,0
2017-10-16T05:14:10.534Z,0
2017-10-16T05:15:19.383Z,0
2017-10-16T05:16:28.234Z,0
2017-10-16T05:17:37.087Z,0
2017-10-16T05:18:45.941Z,0
2017-10-16T05:19:54.894Z,0
2017-10-16T05:21:03.741Z,0
2017-10-16T05:22:12.592Z,0
2017-10-16T05:23:21.442Z,0
2017-10-16T05:24:30.295Z,4
2017-10-16T05:25:39.844Z,0
2017-10-16T05:26:48.696Z,4
2017-10-16T05:27:57.549Z,4
2017-10-16T05:29:06.407Z,4
2017-10-16T05:30:15.259Z,4
2017-10-16T05:31:24.456Z,4
2017-10-16T05:32:33.308Z,8
2017-10-16T05:33:42.161Z,8
2017-10-16T05:34:51.013Z,8
2017-10-16T05:35:59.859Z,12
2017-10-16T05:37:08.710Z,12
2017-10-16T05:38:17.560Z,20
2017-10-16T05:39:26.409Z,20
2017-10-16T05:40:35.257Z,28
2017-10-16T05:41:44.106Z,28
2017-10-16T05:42:52.959Z,36
2017-10-16T05:44:01.806Z,36
2017-10-16T05:45:10.659Z,48
2017-10-16T05:46:19.510Z,52
2017-10-16T05:47:28.362Z,60
2017-10-16T05:48:37.214Z,68
2017-10-16T05:49:46.062Z,76
2017-10-16T05:50:55.063Z,84
2017-10-16T05:52:03.918Z,92
2017-10-16T05:53:12.770Z,104
2017-10-16T05:54:21.619Z,116
2017-10-16T05:55:30.811Z,124
2017-10-16T05:56:39.715Z,132
2017-10-16T05:57:48.571Z,148
2017-10-16T05:58:57.416Z,160
2017-10-16T06:00:06.277Z,172
2017-10-16T06:01:15.475Z,188
2017-10-16T06:02:24.425Z,200
2017-10-16T06:03:33.277Z,212
2017-10-16T06:04:42.130Z,224
2017-10-16T06:05:50.980Z,244
2017-10-16T06:06:59.830Z,256
2017-10-16T06:08:08.779Z,272
2017-10-16T06:09:17.629Z,284
2017-10-16T06:10:26.485Z,304
2017-10-16T06:11:35.330Z,316
2017-10-16T06:12:44.181Z,332
2017-10-16T06:13:53.083Z,344
2017-10-16T06:15:01.934Z,360
2017-10-16T06:16:10.786Z,372
2017-10-16T06:17:19.633Z,388
2017-10-16T06:18:28.480Z,404
2017-10-16T06:19:37.484Z,420
2017-10-16T06:20:46.334Z,436
2017-10-16T06:21:55.183Z,452
2017-10-16T06:23:04.034Z,472
2017-10-16T06:24:12.890Z,492
2017-10-16T06:25:22.040Z,512
2017-10-16T06:26:30.895Z,528
2017-10-16T06:27:39.747Z,544
2017-10-16T06:28:48.597Z,564
2017-10-16T06:29:57.449Z,584
2017-10-16T06:31:06.354Z,600
2017-10-16T06:32:15.208Z,620
2017-10-16T06:33:24.059Z,636
2017-10-16T06:34:32.909Z,652
2017-10-16T06:35:41.760Z,668
2017-10-16T06:36:50.712Z,688
2017-10-16T06:37:59.566Z,704
2017-10-16T06:39:08.420Z,720
2017-10-16T06:40:17.272Z,740
2017-10-16T06:41:26.125Z,752
2017-10-16T06:42:34.978Z,764
2017-10-16T06:43:43.828Z,784
2017-10-16T06:44:52.682Z,796
2017-10-16T06:46:01.536Z,812
2017-10-16T06:47:10.385Z,832
2017-10-16T06:48:19.436Z,856
2017-10-16T06:49:28.287Z,876
2017-10-16T06:50:37.138Z,892
2017-10-16T06:51:45.994Z,916
2017-10-16T06:52:55.190Z,940
2017-10-16T06:54:04.244Z,960
2017-10-16T06:55:13.097Z,980
2017-10-16T06:56:21.950Z,1000
2017-10-16T06:57:30.804Z,1024
2017-10-16T06:58:39.995Z,1060
2017-10-16T06:59:48.999Z,1076
2017-10-16T07:00:57.851Z,1080
2017-10-16T07:02:06.702Z,1072
2017-10-16T07:03:15.553Z,1068
2017-10-16T07:04:24.404Z,1072
2017-10-16T07:05:33.359Z,1084
2017-10-16T07:06:42.214Z,1100
2017-10-16T07:07:51.057Z,1108
2017-10-16T07:09:00.259Z,1112
2017-10-16T07:10:09.111Z,1116
2017-10-16T07:11:18.114Z,1120
2017-10-16T07:12:26.967Z,1120
2017-10-16T07:13:35.817Z,1124
2017-10-16T07:14:44.669Z,1120
2017-10-16T07:15:53.518Z,1120
2017-10-16T07:17:02.367Z,1120
2017-10-16T07:18:11.578Z,1120
2017-10-16T07:19:20.769Z,1120
2017-10-16T07:20:29.968Z,1116
2017-10-16T07:21:38.825Z,1100
2017-10-16T07:22:47.777Z,1088
2017-10-16T07:23:56.629Z,1080
2017-10-16T07:25:05.483Z,1076
2017-10-16T07:26:14.335Z,1076
2017-10-16T07:27:23.186Z,1092
2017-10-16T07:28:32.188Z,1120
2017-10-16T07:29:41.037Z,1160
2017-10-16T07:30:49.894Z,1188
2017-10-16T07:31:58.743Z,1208
2017-10-16T07:33:07.648Z,1228
2017-10-16T07:34:16.897Z,1256
2017-10-16T07:35:25.750Z,1272
2017-10-16T07:36:34.953Z,1288
2017-10-16T07:37:43.803Z,1320
2017-10-16T07:38:52.655Z,1352
2017-10-16T07:40:01.606Z,1372
2017-10-16T07:41:10.458Z,1388
2017-10-16T07:42:19.311Z,1404
2017-10-16T07:43:28.161Z,1416
2017-10-16T07:44:37.360Z,1428
2017-10-16T07:45:46.511Z,1436
2017-10-16T07:46:55.366Z,1448
2017-10-16T07:48:04.215Z,1464
2017-10-16T07:49:13.063Z,1480
2017-10-16T07:50:21.914Z,1492
2017-10-16T07:51:31.063Z,1512
2017-10-16T07:52:39.915Z,1536
2017-10-16T07:53:48.768Z,1564
2017-10-16T07:54:57.623Z,1592
2017-10-16T07:56:06.476Z,1624
2017-10-16T07:57:15.477Z,1652
2017-10-16T07:58:24.328Z,1684
2017-10-16T07:59:33.181Z,1720
2017-10-16T08:00:42.033Z,1760
2017-10-16T08:01:50.886Z,1812
2017-10-16T08:02:59.789Z,1880
2017-10-16T08:04:08.641Z,1948
2017-10-16T08:05:17.494Z,2032
2017-10-16T08:06:26.349Z,2100
2017-10-16T08:07:35.199Z,2156
2017-10-16T08:08:44.200Z,2236
2017-10-16T08:09:53.054Z,2324
2017-10-16T08:11:01.927Z,2388
2017-10-16T08:12:10.761Z,2416
2017-10-16T08:13:19.613Z,2448
2017-10-16T08:14:28.565Z,2516
2017-10-16T08:15:37.415Z,2576
2017-10-16T08:16:46.269Z,2652
2017-10-16T08:17:55.124Z,2756
2017-10-16T08:19:03.976Z,2924
2017-10-16T08:20:12.929Z,3148
2017-10-16T08:21:21.784Z,3392
2017-10-16T08:22:30.640Z,3592
2017-10-16T08:23:39.491Z,3572
2017-10-16T08:24:48.347Z,3392
2017-10-16T08:25:57.249Z,3208
2017-10-16T08:27:06.458Z,3064
2017-10-16T08:28:15.668Z,3048
2017-10-16T08:29:24.521Z,3000
2017-10-16T08:30:33.819Z,2892
2017-10-16T08:31:43.170Z,2748
2017-10-16T08:32:52.022Z,2584
2017-10-16T08:34:00.880Z,2372
2017-10-16T08:35:10.070Z,2156
2017-10-16T08:36:18.931Z,2044
2017-10-16T08:37:28.178Z,2000
2017-10-16T08:38:37.032Z,2016
2017-10-16T08:39:46.239Z,2032
2017-10-16T08:40:55.092Z,2076
2017-10-16T08:42:03.945Z,1992
2017-10-16T08:43:12.899Z,1808
2017-10-16T08:44:21.749Z,1860
2017-10-16T08:45:30.605Z,2084
2017-10-16T08:46:39.458Z,2248
2017-10-16T08:47:48.311Z,2452
2017-10-16T08:48:57.369Z,2528
2017-10-16T08:50:06.227Z,2400
2017-10-16T08:51:15.425Z,2352
2017-10-16T08:52:24.280Z,2336
2017-10-16T08:53:33.134Z,2136
2017-10-16T08:54:42.190Z,1980
2017-10-16T08:55:51.041Z,1880
2017-10-16T08:56:59.894Z,1856
2017-10-16T08:58:08.746Z,1924
2017-10-16T08:59:17.598Z,1828
2017-10-16T09:00:26.950Z,1848
2017-10-16T09:01:35.803Z,1956
2017-10-16T09:02:44.654Z,1968
2017-10-16T09:03:53.508Z,1996
2017-10-16T09:05:02.360Z,2056
2017-10-16T09:06:11.364Z,2116
2017-10-16T09:07:20.220Z,2136
2017-10-16T09:08:29.075Z,2248
2017-10-16T09:09:37.931Z,2288
2017-10-16T09:10:46.785Z,2216
2017-10-16T09:11:55.685Z,2196
2017-10-16T09:13:04.538Z,2172
2017-10-16T09:14:13.390Z,2160
2017-10-16T09:15:22.243Z,2148
2017-10-16T09:16:31.443Z,2116
2017-10-16T09:17:40.502Z,2096
2017-10-16T09:18:49.352Z,2084
2017-10-16T09:19:58.204Z,2056
2017-10-16T09:21:07.062Z,2032
2017-10-16T09:22:15.909Z,2128
2017-10-16T09:23:24.859Z,2148
2017-10-16T09:24:33.715Z,2112
2017-10-16T09:25:42.569Z,2104
2017-10-16T09:26:51.422Z,2064
2017-10-16T09:28:00.275Z,2064
2017-10-16T09:29:09.176Z,2140
2017-10-16T09:30:18.030Z,2176
2017-10-16T09:31:26.882Z,2188
2017-10-16T09:32:35.740Z,2184
2017-10-16T09:33:44.592Z,2180
2017-10-16T09:34:53.547Z,2180
2017-10-16T09:36:02.398Z,2180
2017-10-16T09:37:11.248Z,2188
2017-10-16T09:38:20.109Z,2188
2017-10-16T09:39:28.954Z,2200
2017-10-16T09:40:37.959Z,2268
2017-10-16T09:41:46.815Z,2352
2017-10-16T09:42:55.668Z,2392
2017-10-16T09:44:04.523Z,2408
2017-10-16T09:45:13.373Z,2412
2017-10-16T09:46:22.276Z,2436
2017-10-16T09:47:31.131Z,2460
2017-10-16T09:48:39.986Z,2540
2017-10-16T09:49:48.839Z,2564
2017-10-16T09:50:57.696Z,2524
2017-10-16T09:52:06.904Z,2488
2017-10-16T09:53:15.760Z,2488
2017-10-16T09:54:24.614Z,2504
2017-10-16T09:55:33.468Z,2480
2017-10-16T09:56:42.323Z,2436
2017-10-16T09:57:51.432Z,2416
2017-10-16T09:59:00.288Z,2432
2017-10-16T10:00:09.144Z,2428
2017-10-16T10:01:18.003Z,2428
2017-10-16T10:02:26.906Z,2436
2017-10-16T10:03:36.016Z,2452
2017-10-16T10:04:44.863Z,2460
2017-10-16T10:05:53.714Z,2456
2017-10-16T10:07:02.568Z,2456
2017-10-16T10:08:11.422Z,2468
2017-10-16T10:09:20.422Z,2472
2017-10-16T10:10:29.277Z,2480
2017-10-16T10:11:38.141Z,2472
2017-10-16T10:12:47.695Z,2484
2017-10-16T10:13:56.547Z,2496
2017-10-16T10:15:05.501Z,2524
2017-10-16T10:16:14.356Z,2560
2017-10-16T10:17:23.206Z,2576
2017-10-16T10:18:32.059Z,2572
2017-10-16T10:19:40.916Z,2560
2017-10-16T10:20:49.821Z,2572
2017-10-16T10:21:58.675Z,2568
2017-10-16T10:23:07.530Z,2568
2017-10-16T10:24:16.760Z,2560
2017-10-16T10:25:25.615Z,2548
2017-10-16T10:26:34.570Z,2548
2017-10-16T10:27:43.426Z,2576
2017-10-16T10:28:52.624Z,2568
2017-10-16T10:30:01.477Z,2576
2017-10-16T10:31:10.335Z,2580
2017-10-16T10:32:19.281Z,2600
2017-10-16T10:33:28.136Z,2616
2017-10-16T10:34:36.993Z,2644
2017-10-16T10:35:45.848Z,2676
2017-10-16T10:36:54.701Z,2712
2017-10-16T10:38:03.608Z,2732
2017-10-16T10:39:12.465Z,2752
2017-10-16T10:40:21.319Z,2776
2017-10-16T10:41:30.174Z,2768
2017-10-16T10:42:39.031Z,2784
2017-10-16T10:43:47.987Z,2796
2017-10-16T10:44:56.838Z,2812
2017-10-16T10:46:05.691Z,2848
2017-10-16T10:47:14.550Z,2876
2017-10-16T10:48:23.404Z,2944
2017-10-16T10:49:32.559Z,2984
2017-10-16T10:50:41.414Z,3012
2017-10-16T10:51:50.268Z,3056
2017-10-16T10:52:59.126Z,3072
2017-10-16T10:54:07.981Z,3080
2017-10-16T10:55:17.136Z,3072
2017-10-16T10:56:25.986Z,3076
2017-10-16T10:57:34.841Z,3132
2017-10-16T10:58:43.703Z,3132
2017-10-16T10:59:52.553Z,3132
2017-10-16T11:01:01.509Z,3104
2017-10-16T11:02:10.718Z,3068
2017-10-16T11:03:19.573Z,3056
2017-10-16T11:04:28.432Z,3064
2017-10-16T11:05:37.286Z,3084
2017-10-16T11:06:46.247Z,3052
2017-10-16T11:07:55.098Z,3048
2017-10-16T11:09:03.956Z,3040
2017-10-16T11:10:12.809Z,3052
2017-10-16T11:11:21.667Z,3072
2017-10-16T11:12:30.774Z,3088
2017-10-16T11:13:39.631Z,3096
2017-10-16T11:14:48.482Z,3100
2017-10-16T11:15:57.683Z,3096
2017-10-16T11:17:06.546Z,3108
2017-10-16T11:18:15.553Z,3112
2017-10-16T11:19:24.408Z,3148
2017-10-16T11:20:33.270Z,3168
2017-10-16T11:21:42.129Z,3184
2017-10-16T11:22:50.986Z,3196
2017-10-16T11:23:59.940Z,3212
2017-10-16T11:25:08.795Z,3220
2017-10-16T11:26:17.651Z,3244
2017-10-16T11:27:26.504Z,3276
2017-10-16T11:28:35.356Z,3316
2017-10-16T11:29:44.512Z,3332
2017-10-16T11:30:53.371Z,3368
2017-10-16T11:32:02.227Z,3412
2017-10-16T11:33:11.085Z,3440
2017-10-16T11:34:19.941Z,3464
2017-10-16T11:35:29.046Z,3512
2017-10-16T11:36:37.899Z,3524
2017-10-16T11:37:46.758Z,3548
2017-10-16T11:38:55.613Z,3584
2017-10-16T11:40:04.468Z,3632
2017-10-16T11:41:13.524Z,3708
2017-10-16T11:42:22.381Z,3776
2017-10-16T11:43:31.582Z,3872
2017-10-16T11:44:40.441Z,5504
2017-10-16T11:45:49.296Z,6624
2017-10-16T11:46:58.353Z,5272
2017-10-16T11:48:07.206Z,8200
2017-10-16T11:49:16.062Z,8316
2017-10-16T11:50:24.918Z,5660
2017-10-16T11:51:33.773Z,5260
2017-10-16T11:52:42.826Z,6404
2017-10-16T11:53:51.687Z,9000
2017-10-16T11:55:00.892Z,10160
2017-10-16T11:56:09.747Z,6716
2017-10-16T11:57:18.603Z,5104
2017-10-16T11:58:27.596Z,6740
2017-10-16T11:59:36.417Z,9440
2017-10-16T12:00:45.619Z,6436
2017-10-16T12:01:54.482Z,5716
2017-10-16T12:03:03.335Z,10240
2017-10-16T12:04:12.295Z,9348
2017-10-16T12:05:21.152Z,6484
2017-10-16T12:06:30.010Z,5212
2017-10-16T12:07:38.863Z,5708
2017-10-16T12:08:47.721Z,5684
2017-10-16T12:09:56.677Z,6356
2017-10-16T12:11:05.537Z,5840
2017-10-16T12:12:14.392Z,4680
2017-10-16T12:13:23.249Z,4660
2017-10-16T12:14:32.104Z,5572
2017-10-16T12:15:41.066Z,6676
2017-10-16T12:16:49.925Z,5508
2017-10-16T12:17:58.787Z,5732
2017-10-16T12:19:07.645Z,6220
2017-10-16T12:20:16.503Z,7532
2017-10-16T12:21:25.408Z,7688
2017-10-16T12:22:34.263Z,7040
2017-10-16T12:23:43.120Z,7708
2017-10-16T12:24:51.973Z,7216
2017-10-16T12:26:00.841Z,5284
2017-10-16T12:27:10.291Z,5088
2017-10-16T12:28:19.151Z,5188
2017-10-16T12:29:28.007Z,7048
2017-10-16T12:30:37.215Z,8740
2017-10-16T12:31:46.076Z,7428
2017-10-16T12:32:55.135Z,6416
2017-10-16T12:34:03.990Z,8232
2017-10-16T12:35:12.850Z,7844
2017-10-16T12:36:21.712Z,8552
2017-10-16T12:37:30.567Z,11952
2017-10-16T12:38:39.429Z,10256
2017-10-16T12:39:48.282Z,7696
2017-10-16T12:40:57.141Z,7284
2017-10-16T12:42:06.002Z,8744
2017-10-16T12:43:14.860Z,7072
2017-10-16T12:44:23.919Z,8864
2017-10-16T12:45:32.780Z,7404
2017-10-16T12:46:41.984Z,6548
2017-10-16T12:47:50.858Z,10664
2017-10-16T12:48:59.720Z,11212
2017-10-16T12:50:08.730Z,12452
2017-10-16T12:51:17.594Z,12036
2017-10-16T12:52:26.450Z,9268
2017-10-16T12:53:35.309Z,8696
2017-10-16T12:54:44.176Z,8412
2017-10-16T12:55:53.337Z,12660
2017-10-16T12:57:02.196Z,14432
2017-10-16T12:58:11.055Z,14416
2017-10-16T12:59:19.918Z,15296
2017-10-16T13:00:28.773Z,15264
2017-10-16T13:01:37.834Z,9644
2017-10-16T13:02:46.697Z,7148
2017-10-16T13:03:55.557Z,7264
2017-10-16T13:05:04.417Z,5424
2017-10-16T13:06:13.276Z,6120
2017-10-16T13:07:22.434Z,9904
2017-10-16T13:08:31.297Z,11084
2017-10-16T13:09:40.155Z,7572
2017-10-16T13:10:49.016Z,5324
2017-10-16T13:11:57.873Z,5308
2017-10-16T13:13:06.884Z,5368
2017-10-16T13:14:15.744Z,6004
2017-10-16T13:15:24.736Z,8552
2017-10-16T13:16:33.637Z,7744
2017-10-16T13:17:42.503Z,7476
2017-10-16T13:18:51.473Z,6812
2017-10-16T13:20:00.692Z,8852
2017-10-16T13:21:09.729Z,12436
2017-10-16T13:22:18.613Z,12916
2017-10-16T13:23:27.476Z,8724
2017-10-16T13:24:36.485Z,5908
2017-10-16T13:25:45.406Z,6780
2017-10-16T13:26:54.963Z,7760
2017-10-16T13:28:03.820Z,5952
2017-10-16T13:29:12.690Z,5860
2017-10-16T13:30:21.742Z,6508
2017-10-16T13:31:30.614Z,6600
2017-10-16T13:32:39.506Z,7976
2017-10-16T13:33:48.813Z,10948
2017-10-16T13:34:57.698Z,10660
2017-10-16T13:36:06.671Z,12116
2017-10-16T13:37:15.531Z,10116
2017-10-16T13:38:24.388Z,10940
2017-10-16T13:39:33.594Z,11064
2017-10-16T13:40:42.458Z,10976
2017-10-16T13:41:51.494Z,9564
2017-10-16T13:43:00.395Z,8972
2017-10-16T13:44:09.320Z,9428
2017-10-16T13:45:18.255Z,7652
2017-10-16T13:46:27.115Z,9268
2017-10-16T13:47:36.024Z,11552
2017-10-16T13:48:44.884Z,11064
2017-10-16T13:49:53.771Z,7812
2017-10-16T13:51:02.631Z,5420
2017-10-16T13:52:11.500Z,5556
2017-10-16T13:53:20.500Z,7732
2017-10-16T13:54:29.363Z,7768
2017-10-16T13:55:38.230Z,6784
2017-10-16T13:56:47.090Z,5424
2017-10-16T13:57:56.142Z,9172
2017-10-16T13:59:05.595Z,11736
2017-10-16T14:00:14.505Z,9568
2017-10-16T14:01:23.399Z,10496
2017-10-16T14:02:32.706Z,9768
2017-10-16T14:03:41.564Z,9352
2017-10-16T14:04:50.466Z,8652
2017-10-16T14:05:59.494Z,8208
2017-10-16T14:07:08.384Z,6808
2017-10-16T14:08:17.591Z,6908
2017-10-16T14:09:26.450Z,6684
2017-10-16T14:10:35.333Z,6452
2017-10-16T14:11:44.403Z,6708
2017-10-16T14:12:53.264Z,7176
2017-10-16T14:14:02.477Z,7656
2017-10-16T14:15:11.337Z,6948
2017-10-16T14:16:20.198Z,6292
2017-10-16T14:17:29.057Z,6084
2017-10-16T14:18:37.916Z,5700
2017-10-16T14:19:46.774Z,5052
2017-10-16T14:20:55.635Z,5132
2017-10-16T14:22:04.495Z,4640
2017-10-16T14:23:13.353Z,4476
2017-10-16T14:24:22.213Z,4468
2017-10-16T14:25:31.071Z,4464
2017-10-16T14:26:39.928Z,4480
2017-10-16T14:27:48.791Z,4340
2017-10-16T14:28:58.000Z,4216
2017-10-16T14:30:07.457Z,4168
2017-10-16T14:31:16.316Z,4140
2017-10-16T14:32:25.178Z,4336
2017-10-16T14:33:34.037Z,4568
2017-10-16T14:34:42.900Z,4020
2017-10-16T14:35:51.862Z,3952
2017-10-16T14:37:00.732Z,4116
2017-10-16T14:38:09.583Z,4328
2017-10-16T14:39:18.440Z,3960
2017-10-16T14:40:27.295Z,3852
2017-10-16T14:41:36.354Z,3812
2017-10-16T14:42:45.235Z,3888
2017-10-16T14:43:54.439Z,3956
2017-10-16T14:45:03.305Z,3908
2017-10-16T14:46:12.506Z,3628
2017-10-16T14:47:21.615Z,3584
2017-10-16T14:48:30.474Z,3620
2017-10-16T14:49:39.334Z,3948
2017-10-16T14:50:48.209Z,3748
2017-10-16T14:51:57.054Z,3432
2017-10-16T14:53:05.963Z,3356
2017-10-16T14:54:14.822Z,3308
2017-10-16T14:55:23.677Z,3256
2017-10-16T14:56:32.536Z,3208
2017-10-16T14:57:41.743Z,3176
2017-10-16T14:58:50.711Z,3160
2017-10-16T14:59:59.585Z,3124
2017-10-16T15:01:09.028Z,3076
2017-10-16T15:02:17.887Z,3020
2017-10-16T15:03:27.101Z,2940
2017-10-16T15:04:36.006Z,2896
2017-10-16T15:05:44.861Z,2856
2017-10-16T15:06:53.719Z,2808
2017-10-16T15:08:02.574Z,2768
2017-10-16T15:09:11.432Z,2724
2017-10-16T15:10:20.673Z,2684
2017-10-16T15:11:29.571Z,2636
2017-10-16T15:12:38.431Z,2584
2017-10-16T15:13:47.287Z,2540
2017-10-16T15:14:56.165Z,2492
2017-10-16T15:16:05.146Z,2440
2017-10-16T15:17:14.005Z,2396
2017-10-16T15:18:22.861Z,2352
2017-10-16T15:19:31.719Z,2312
2017-10-16T15:20:40.580Z,2272
2017-10-16T15:21:49.482Z,2224
2017-10-16T15:22:58.339Z,2180
2017-10-16T15:24:07.197Z,2144
2017-10-16T15:25:16.054Z,2088
2017-10-16T15:26:24.911Z,2044
2017-10-16T15:27:33.925Z,2000
2017-10-16T15:28:42.781Z,1956
2017-10-16T15:29:51.641Z,1912
2017-10-16T15:31:00.498Z,1868
2017-10-16T15:32:09.356Z,1824
2017-10-16T15:33:18.512Z,1788
2017-10-16T15:34:27.377Z,1748
2017-10-16T15:35:36.238Z,1696
2017-10-16T15:36:45.092Z,1644
2017-10-16T15:37:53.952Z,1596
2017-10-16T15:39:02.964Z,1544
2017-10-16T15:40:11.823Z,1496
2017-10-16T15:41:20.681Z,1444
2017-10-16T15:42:29.542Z,1396
2017-10-16T15:43:38.397Z,1348
2017-10-16T15:44:47.253Z,1296
2017-10-16T15:45:56.109Z,1244
2017-10-16T15:47:04.964Z,1192
2017-10-16T15:48:13.819Z,1144
2017-10-16T15:49:22.679Z,1100
2017-10-16T15:50:31.934Z,1052
2017-10-16T15:51:40.793Z,1008
2017-10-16T15:52:49.647Z,968